sensor_id;sensor_type;location;lat;lon;timestamp;temperature;humidity
71184;DHT22;58887;51.980;4.464;2022-09-09T00:00:49;16.55;83.35
71184;DHT22;58887;51.980;4.464;2022-09-09T00:03:25;16.65;83.00
71184;DHT22;58887;51.980;4.464;2022-09-09T00:05:59;16.62;83.16
71184;DHT22;58887;51.980;4.464;2022-09-09T00:09:18;16.54;83.50
71184;DHT22;58887;51.980;4.464;2022-09-09T00:11:54;16.50;83.73
71184;DHT22;58887;51.980;4.464;2022-09-09T00:17:36;16.69;83.13
71184;DHT22;58887;51.980;4.464;2022-09-09T00:23:18;16.61;83.54
71184;DHT22;58887;51.980;4.464;2022-09-09T00:26:21;16.48;83.80
71184;DHT22;58887;51.980;4.464;2022-09-09T00:31:24;16.57;83.83
71184;DHT22;58887;51.980;4.464;2022-09-09T00:33:53;16.52;83.71
71184;DHT22;58887;51.980;4.464;2022-09-09T00:36:26;16.50;84.24
71184;DHT22;58887;51.980;4.464;2022-09-09T00:39:00;16.45;84.37
71184;DHT22;58887;51.980;4.464;2022-09-09T00:44:33;16.37;84.60
71184;DHT22;58887;51.980;4.464;2022-09-09T00:55:47;16.38;84.65
71184;DHT22;58887;51.980;4.464;2022-09-09T00:58:14;16.37;84.80
71184;DHT22;58887;51.980;4.464;2022-09-09T01:00:44;16.27;85.31
71184;DHT22;58887;51.980;4.464;2022-09-09T01:03:42;16.35;85.09
71184;DHT22;58887;51.980;4.464;2022-09-09T01:06:28;16.48;84.46
71184;DHT22;58887;51.980;4.464;2022-09-09T01:09:32;16.48;84.50
71184;DHT22;58887;51.980;4.464;2022-09-09T01:12:23;16.51;84.53
71184;DHT22;58887;51.980;4.464;2022-09-09T01:14:52;16.51;84.51
71184;DHT22;58887;51.980;4.464;2022-09-09T01:17:27;16.48;84.84
71184;DHT22;58887;51.980;4.464;2022-09-09T01:24:17;16.62;84.33
71184;DHT22;58887;51.980;4.464;2022-09-09T01:26:32;16.68;84.03
71184;DHT22;58887;51.980;4.464;2022-09-09T01:28:59;16.61;84.08
71184;DHT22;58887;51.980;4.464;2022-09-09T01:31:34;16.57;84.31
71184;DHT22;58887;51.980;4.464;2022-09-09T01:34:02;16.55;84.30
71184;DHT22;58887;51.980;4.464;2022-09-09T01:39:13;16.55;84.13
71184;DHT22;58887;51.980;4.464;2022-09-09T01:41:38;16.57;84.03
71184;DHT22;58887;51.980;4.464;2022-09-09T01:44:05;16.58;84.06
71184;DHT22;58887;51.980;4.464;2022-09-09T01:46:31;16.58;83.85
71184;DHT22;58887;51.980;4.464;2022-09-09T01:48:58;16.58;83.53
71184;DHT22;58887;51.980;4.464;2022-09-09T01:51:24;16.62;83.50
71184;DHT22;58887;51.980;4.464;2022-09-09T01:53:50;16.58;83.58
71184;DHT22;58887;51.980;4.464;2022-09-09T01:56:25;16.57;83.17
71184;DHT22;58887;51.980;4.464;2022-09-09T02:01:30;16.52;83.41
71184;DHT22;58887;51.980;4.464;2022-09-09T02:04:11;16.51;83.25
71184;DHT22;58887;51.980;4.464;2022-09-09T02:06:45;16.52;83.01
71184;DHT22;58887;51.980;4.464;2022-09-09T02:09:15;16.50;83.06
71184;DHT22;58887;51.980;4.464;2022-09-09T02:11:45;16.40;83.17
71184;DHT22;58887;51.980;4.464;2022-09-09T02:14:18;16.38;83.18
71184;DHT22;58887;51.980;4.464;2022-09-09T02:16:56;16.38;83.03
71184;DHT22;58887;51.980;4.464;2022-09-09T02:19:48;16.43;82.67
71184;DHT22;58887;51.980;4.464;2022-09-09T02:22:19;16.51;82.23
71184;DHT22;58887;51.980;4.464;2022-09-09T02:24:47;16.52;82.45
71184;DHT22;58887;51.980;4.464;2022-09-09T02:27:16;16.45;82.42
71184;DHT22;58887;51.980;4.464;2022-09-09T02:29:43;16.43;82.55
71184;DHT22;58887;51.980;4.464;2022-09-09T02:32:16;16.35;82.84
71184;DHT22;58887;51.980;4.464;2022-09-09T02:34:53;16.35;82.60
71184;DHT22;58887;51.980;4.464;2022-09-09T02:37:25;16.41;82.20
71184;DHT22;58887;51.980;4.464;2022-09-09T02:39:54;16.31;82.56
71184;DHT22;58887;51.980;4.464;2022-09-09T02:42:20;16.40;82.04
71184;DHT22;58887;51.980;4.464;2022-09-09T02:44:47;16.34;82.33
71184;DHT22;58887;51.980;4.464;2022-09-09T02:58:06;16.35;81.68
71184;DHT22;58887;51.980;4.464;2022-09-09T03:00:33;16.34;81.96
71184;DHT22;58887;51.980;4.464;2022-09-09T03:03:03;16.27;82.09
71184;DHT22;58887;51.980;4.464;2022-09-09T03:05:29;16.34;81.93
71184;DHT22;58887;51.980;4.464;2022-09-09T03:07:54;16.28;82.29
71184;DHT22;58887;51.980;4.464;2022-09-09T03:10:20;16.34;81.93
71184;DHT22;58887;51.980;4.464;2022-09-09T03:12:45;16.37;81.86
71184;DHT22;58887;51.980;4.464;2022-09-09T03:15:11;16.37;81.97
71184;DHT22;58887;51.980;4.464;2022-09-09T03:17:37;16.37;81.84
71184;DHT22;58887;51.980;4.464;2022-09-09T03:20:03;16.23;82.37
71184;DHT22;58887;51.980;4.464;2022-09-09T03:22:29;16.25;82.23
71184;DHT22;58887;51.980;4.464;2022-09-09T03:24:55;16.31;82.15
71184;DHT22;58887;51.980;4.464;2022-09-09T03:27:20;16.17;82.61
71184;DHT22;58887;51.980;4.464;2022-09-09T03:29:46;16.24;82.48
71184;DHT22;58887;51.980;4.464;2022-09-09T03:32:12;16.27;82.08
71184;DHT22;58887;51.980;4.464;2022-09-09T03:34:38;16.21;82.37
71184;DHT22;58887;51.980;4.464;2022-09-09T03:37:07;16.25;82.22
71184;DHT22;58887;51.980;4.464;2022-09-09T03:39:33;16.33;81.86
71184;DHT22;58887;51.980;4.464;2022-09-09T03:41:58;16.30;82.01
71184;DHT22;58887;51.980;4.464;2022-09-09T03:44:23;16.37;81.66
71184;DHT22;58887;51.980;4.464;2022-09-09T03:46:49;16.27;81.99
71184;DHT22;58887;51.980;4.464;2022-09-09T03:49:14;16.37;81.63
71184;DHT22;58887;51.980;4.464;2022-09-09T03:51:40;16.35;81.73
71184;DHT22;58887;51.980;4.464;2022-09-09T03:54:07;16.40;81.69
71184;DHT22;58887;51.980;4.464;2022-09-09T03:56:34;16.30;82.05
71184;DHT22;58887;51.980;4.464;2022-09-09T03:59:00;16.31;81.92
71184;DHT22;58887;51.980;4.464;2022-09-09T04:01:26;16.12;82.41
71184;DHT22;58887;51.980;4.464;2022-09-09T04:03:52;16.24;81.78
71184;DHT22;58887;51.980;4.464;2022-09-09T04:06:18;16.16;82.02
71184;DHT22;58887;51.980;4.464;2022-09-09T04:08:45;16.31;81.37
71184;DHT22;58887;51.980;4.464;2022-09-09T04:11:14;16.28;81.26
71184;DHT22;58887;51.980;4.464;2022-09-09T04:13:40;16.17;81.87
71184;DHT22;58887;51.980;4.464;2022-09-09T04:16:09;16.09;82.22
71184;DHT22;58887;51.980;4.464;2022-09-09T04:18:35;16.13;82.02
71184;DHT22;58887;51.980;4.464;2022-09-09T04:21:02;16.09;82.08
71184;DHT22;58887;51.980;4.464;2022-09-09T04:23:29;16.14;81.80
71184;DHT22;58887;51.980;4.464;2022-09-09T04:25:56;16.14;81.76
71184;DHT22;58887;51.980;4.464;2022-09-09T04:28:24;16.13;81.99
71184;DHT22;58887;51.980;4.464;2022-09-09T04:30:50;16.10;82.00
71184;DHT22;58887;51.980;4.464;2022-09-09T04:33:18;16.13;81.87
71184;DHT22;58887;51.980;4.464;2022-09-09T04:35:49;16.09;82.09
71184;DHT22;58887;51.980;4.464;2022-09-09T04:38:16;16.07;82.10
71184;DHT22;58887;51.980;4.464;2022-09-09T04:40:48;15.90;82.75
71184;DHT22;58887;51.980;4.464;2022-09-09T04:43:14;16.00;82.33
71184;DHT22;58887;51.980;4.464;2022-09-09T04:45:40;15.97;82.41
71184;DHT22;58887;51.980;4.464;2022-09-09T04:48:06;16.02;82.37
71184;DHT22;58887;51.980;4.464;2022-09-09T04:50:32;15.96;82.71
71184;DHT22;58887;51.980;4.464;2022-09-09T04:53:05;15.99;82.50
71184;DHT22;58887;51.980;4.464;2022-09-09T04:55:31;16.14;81.91
71184;DHT22;58887;51.980;4.464;2022-09-09T04:57:56;16.09;82.07
71184;DHT22;58887;51.980;4.464;2022-09-09T05:00:24;15.93;82.68
71184;DHT22;58887;51.980;4.464;2022-09-09T05:02:49;15.83;82.98
71184;DHT22;58887;51.980;4.464;2022-09-09T05:05:15;15.94;82.84
71184;DHT22;58887;51.980;4.464;2022-09-09T05:07:40;15.93;82.86
71184;DHT22;58887;51.980;4.464;2022-09-09T05:10:07;16.02;82.53
71184;DHT22;58887;51.980;4.464;2022-09-09T05:12:32;15.96;82.84
71184;DHT22;58887;51.980;4.464;2022-09-09T05:14:58;15.92;82.88
71184;DHT22;58887;51.980;4.464;2022-09-09T05:17:23;16.03;82.51
71184;DHT22;58887;51.980;4.464;2022-09-09T05:19:49;16.00;82.56
71184;DHT22;58887;51.980;4.464;2022-09-09T05:22:21;15.99;82.52
71184;DHT22;58887;51.980;4.464;2022-09-09T05:24:49;15.93;82.95
71184;DHT22;58887;51.980;4.464;2022-09-09T05:27:17;15.99;82.93
71184;DHT22;58887;51.980;4.464;2022-09-09T05:29:45;15.96;83.00
71184;DHT22;58887;51.980;4.464;2022-09-09T05:32:11;16.04;82.89
71184;DHT22;58887;51.980;4.464;2022-09-09T05:34:37;16.12;82.40
71184;DHT22;58887;51.980;4.464;2022-09-09T05:37:05;16.21;82.20
71184;DHT22;58887;51.980;4.464;2022-09-09T05:39:31;16.23;82.09
71184;DHT22;58887;51.980;4.464;2022-09-09T05:41:58;16.34;81.64
71184;DHT22;58887;51.980;4.464;2022-09-09T05:44:23;16.33;81.85
71184;DHT22;58887;51.980;4.464;2022-09-09T05:46:52;16.33;81.71
71184;DHT22;58887;51.980;4.464;2022-09-09T05:49:20;16.47;81.50
71184;DHT22;58887;51.980;4.464;2022-09-09T05:51:46;16.52;81.29
71184;DHT22;58887;51.980;4.464;2022-09-09T05:54:13;16.41;81.29
71184;DHT22;58887;51.980;4.464;2022-09-09T05:56:41;16.58;80.96
71184;DHT22;58887;51.980;4.464;2022-09-09T05:59:07;16.55;80.80
71184;DHT22;58887;51.980;4.464;2022-09-09T06:01:35;16.61;80.68
71184;DHT22;58887;51.980;4.464;2022-09-09T06:04:00;16.69;80.42
71184;DHT22;58887;51.980;4.464;2022-09-09T06:06:31;16.58;80.86
71184;DHT22;58887;51.980;4.464;2022-09-09T06:08:57;16.73;80.66
71184;DHT22;58887;51.980;4.464;2022-09-09T06:11:25;16.61;80.77
71184;DHT22;58887;51.980;4.464;2022-09-09T06:13:51;16.79;80.30
71184;DHT22;58887;51.980;4.464;2022-09-09T06:16:21;16.83;80.27
71184;DHT22;58887;51.980;4.464;2022-09-09T06:18:51;16.69;80.45
71184;DHT22;58887;51.980;4.464;2022-09-09T06:21:20;16.76;80.49
71184;DHT22;58887;51.980;4.464;2022-09-09T06:23:47;16.81;80.16
71184;DHT22;58887;51.980;4.464;2022-09-09T06:26:21;16.89;80.12
71184;DHT22;58887;51.980;4.464;2022-09-09T06:28:49;16.83;80.16
71184;DHT22;58887;51.980;4.464;2022-09-09T06:31:17;16.88;80.13
71184;DHT22;58887;51.980;4.464;2022-09-09T06:33:48;16.82;79.98
71184;DHT22;58887;51.980;4.464;2022-09-09T06:36:26;16.92;79.93
71184;DHT22;58887;51.980;4.464;2022-09-09T06:38:52;16.91;79.85
71184;DHT22;58887;51.980;4.464;2022-09-09T06:41:20;16.92;80.29
71184;DHT22;58887;51.980;4.464;2022-09-09T06:43:46;17.01;80.09
71184;DHT22;58887;51.980;4.464;2022-09-09T06:46:17;17.01;80.16
71184;DHT22;58887;51.980;4.464;2022-09-09T06:48:44;17.19;79.38
71184;DHT22;58887;51.980;4.464;2022-09-09T06:51:13;17.15;79.30
71184;DHT22;58887;51.980;4.464;2022-09-09T06:53:40;17.10;79.80
71184;DHT22;58887;51.980;4.464;2022-09-09T06:56:26;17.24;79.01
71184;DHT22;58887;51.980;4.464;2022-09-09T06:58:54;17.18;79.06
71184;DHT22;58887;51.980;4.464;2022-09-09T07:01:23;17.15;79.32
71184;DHT22;58887;51.980;4.464;2022-09-09T07:03:51;17.10;79.45
71184;DHT22;58887;51.980;4.464;2022-09-09T07:06:25;17.16;79.37
71184;DHT22;58887;51.980;4.464;2022-09-09T07:08:52;17.13;79.54
71184;DHT22;58887;51.980;4.464;2022-09-09T07:11:20;17.16;79.32
71184;DHT22;58887;51.980;4.464;2022-09-09T07:13:46;17.13;78.99
71184;DHT22;58887;51.980;4.464;2022-09-09T07:16:17;17.03;79.51
71184;DHT22;58887;51.980;4.464;2022-09-09T07:18:43;16.95;79.35
71184;DHT22;58887;51.980;4.464;2022-09-09T07:21:14;17.05;79.56
71184;DHT22;58887;51.980;4.464;2022-09-09T07:23:40;17.09;79.81
71184;DHT22;58887;51.980;4.464;2022-09-09T07:28:35;17.13;79.61
71184;DHT22;58887;51.980;4.464;2022-09-09T07:31:01;17.20;79.17
71184;DHT22;58887;51.980;4.464;2022-09-09T07:33:29;17.18;79.24
71184;DHT22;58887;51.980;4.464;2022-09-09T07:36:13;17.13;79.26
71184;DHT22;58887;51.980;4.464;2022-09-09T07:41:10;17.12;79.66
71184;DHT22;58887;51.980;4.464;2022-09-09T07:43:43;17.20;79.45
71184;DHT22;58887;51.980;4.464;2022-09-09T07:46:11;17.12;79.70
71184;DHT22;58887;51.980;4.464;2022-09-09T07:48:44;17.12;79.89
71184;DHT22;58887;51.980;4.464;2022-09-09T07:51:13;17.19;79.79
71184;DHT22;58887;51.980;4.464;2022-09-09T07:53:42;17.40;78.54
71184;DHT22;58887;51.980;4.464;2022-09-09T07:56:10;17.37;79.13
71184;DHT22;58887;51.980;4.464;2022-09-09T07:58:37;17.46;78.35
71184;DHT22;58887;51.980;4.464;2022-09-09T08:01:12;17.49;78.80
71184;DHT22;58887;51.980;4.464;2022-09-09T08:03:37;17.32;79.13
71184;DHT22;58887;51.980;4.464;2022-09-09T08:06:06;17.36;79.00
71184;DHT22;58887;51.980;4.464;2022-09-09T08:08:35;17.55;78.08
71184;DHT22;58887;51.980;4.464;2022-09-09T08:11:13;17.46;78.47
71184;DHT22;58887;51.980;4.464;2022-09-09T08:13:41;17.55;78.48
71184;DHT22;58887;51.980;4.464;2022-09-09T08:16:13;17.60;78.08
71184;DHT22;58887;51.980;4.464;2022-09-09T08:18:40;17.70;77.72
71184;DHT22;58887;51.980;4.464;2022-09-09T08:21:14;17.61;77.48
71184;DHT22;58887;51.980;4.464;2022-09-09T08:23:42;17.50;77.89
71184;DHT22;58887;51.980;4.464;2022-09-09T08:26:14;17.47;77.84
71184;DHT22;58887;51.980;4.464;2022-09-09T08:28:41;17.40;78.60
71184;DHT22;58887;51.980;4.464;2022-09-09T08:31:29;17.50;78.28
71184;DHT22;58887;51.980;4.464;2022-09-09T08:33:55;17.59;77.92
71184;DHT22;58887;51.980;4.464;2022-09-09T08:36:24;17.74;77.45
71184;DHT22;58887;51.980;4.464;2022-09-09T08:38:53;17.63;77.50
71184;DHT22;58887;51.980;4.464;2022-09-09T08:55:35;17.61;77.82
71184;DHT22;58887;51.980;4.464;2022-09-09T08:58:23;17.66;78.07
71184;DHT22;58887;51.980;4.464;2022-09-09T09:11:46;17.57;78.07
71184;DHT22;58887;51.980;4.464;2022-09-09T09:14:22;17.73;77.69
71184;DHT22;58887;51.980;4.464;2022-09-09T09:17:08;17.87;77.42
71184;DHT22;58887;51.980;4.464;2022-09-09T09:19:38;17.78;77.31
71184;DHT22;58887;51.980;4.464;2022-09-09T09:25:22;17.77;77.98
71184;DHT22;58887;51.980;4.464;2022-09-09T09:27:58;17.95;77.96
71184;DHT22;58887;51.980;4.464;2022-09-09T09:30:34;18.21;78.46
71184;DHT22;58887;51.980;4.464;2022-09-09T09:33:05;18.42;78.80
71184;DHT22;58887;51.980;4.464;2022-09-09T09:35:32;18.43;77.92
71184;DHT22;58887;51.980;4.464;2022-09-09T09:37:57;18.36;78.51
71184;DHT22;58887;51.980;4.464;2022-09-09T09:40:26;18.26;78.84
71184;DHT22;58887;51.980;4.464;2022-09-09T09:42:58;18.26;79.07
71184;DHT22;58887;51.980;4.464;2022-09-09T09:45:40;18.43;79.37
71184;DHT22;58887;51.980;4.464;2022-09-09T09:48:11;18.64;78.99
71184;DHT22;58887;51.980;4.464;2022-09-09T09:50:51;18.63;78.61
71184;DHT22;58887;51.980;4.464;2022-09-09T09:53:27;18.79;77.74
71184;DHT22;58887;51.980;4.464;2022-09-09T09:56:02;18.96;77.22
71184;DHT22;58887;51.980;4.464;2022-09-09T09:58:33;18.94;77.85
71184;DHT22;58887;51.980;4.464;2022-09-09T10:01:00;18.80;77.47
71184;DHT22;58887;51.980;4.464;2022-09-09T10:03:32;18.55;78.77
71184;DHT22;58887;51.980;4.464;2022-09-09T10:06:03;18.33;80.96
71184;DHT22;58887;51.980;4.464;2022-09-09T10:08:29;18.16;80.49
71184;DHT22;58887;51.980;4.464;2022-09-09T10:11:26;18.05;82.21
71184;DHT22;58887;51.980;4.464;2022-09-09T10:16:35;17.84;82.20
71184;DHT22;58887;51.980;4.464;2022-09-09T10:30:09;18.84;80.43
71184;DHT22;58887;51.980;4.464;2022-09-09T10:35:35;19.00;80.22
71184;DHT22;58887;51.980;4.464;2022-09-09T10:38:25;19.04;79.64
71184;DHT22;58887;51.980;4.464;2022-09-09T10:46:19;19.01;79.10
71184;DHT22;58887;51.980;4.464;2022-09-09T10:57:46;19.96;74.54
71184;DHT22;58887;51.980;4.464;2022-09-09T11:00:22;19.73;76.39
71184;DHT22;58887;51.980;4.464;2022-09-09T11:02:56;19.80;76.96
71184;DHT22;58887;51.980;4.464;2022-09-09T11:08:10;21.05;71.94
71184;DHT22;58887;51.980;4.464;2022-09-09T11:11:02;22.31;68.40
71184;DHT22;58887;51.980;4.464;2022-09-09T11:14:05;22.89;66.80
71184;DHT22;58887;51.980;4.464;2022-09-09T11:16:49;22.91;66.19
71184;DHT22;58887;51.980;4.464;2022-09-09T11:21:51;22.12;67.64
71184;DHT22;58887;51.980;4.464;2022-09-09T11:24:38;21.77;69.99
71184;DHT22;58887;51.980;4.464;2022-09-09T11:27:24;22.12;68.75
71184;DHT22;58887;51.980;4.464;2022-09-09T11:30:19;21.47;68.80
71184;DHT22;58887;51.980;4.464;2022-09-09T11:35:54;19.89;74.53
71184;DHT22;58887;51.980;4.464;2022-09-09T11:38:47;19.47;75.00
71184;DHT22;58887;51.980;4.464;2022-09-09T11:41:15;19.22;77.68
71184;DHT22;58887;51.980;4.464;2022-09-09T11:43:44;18.96;78.80
71184;DHT22;58887;51.980;4.464;2022-09-09T11:46:14;18.71;79.66
71184;DHT22;58887;51.980;4.464;2022-09-09T11:48:41;18.60;80.86
71184;DHT22;58887;51.980;4.464;2022-09-09T11:51:27;18.38;83.28
71184;DHT22;58887;51.980;4.464;2022-09-09T11:59:17;17.92;84.20
71184;DHT22;58887;51.980;4.464;2022-09-09T12:01:49;17.95;84.79
71184;DHT22;58887;51.980;4.464;2022-09-09T12:04:26;17.88;85.09
71184;DHT22;58887;51.980;4.464;2022-09-09T12:09:47;17.91;84.99
71184;DHT22;58887;51.980;4.464;2022-09-09T12:12:26;17.91;85.56
71184;DHT22;58887;51.980;4.464;2022-09-09T12:17:52;17.95;85.21
71184;DHT22;58887;51.980;4.464;2022-09-09T12:20:22;18.05;85.07
71184;DHT22;58887;51.980;4.464;2022-09-09T12:23:05;17.98;84.88
71184;DHT22;58887;51.980;4.464;2022-09-09T12:28:21;17.88;84.53
71184;DHT22;58887;51.980;4.464;2022-09-09T12:31:14;18.02;84.59
71184;DHT22;58887;51.980;4.464;2022-09-09T12:33:46;18.11;83.54
71184;DHT22;58887;51.980;4.464;2022-09-09T12:36:22;18.08;82.97
71184;DHT22;58887;51.980;4.464;2022-09-09T12:38:48;18.04;83.45
71184;DHT22;58887;51.980;4.464;2022-09-09T12:43:45;18.09;84.67
71184;DHT22;58887;51.980;4.464;2022-09-09T12:48:48;17.98;84.59
71184;DHT22;58887;51.980;4.464;2022-09-09T12:51:27;18.18;83.68
71184;DHT22;58887;51.980;4.464;2022-09-09T12:53:54;18.09;83.78
71184;DHT22;58887;51.980;4.464;2022-09-09T12:56:23;18.13;83.85
71184;DHT22;58887;51.980;4.464;2022-09-09T12:58:53;18.40;83.61
71184;DHT22;58887;51.980;4.464;2022-09-09T13:01:27;19.48;80.64
71184;DHT22;58887;51.980;4.464;2022-09-09T13:03:54;19.65;78.73
71184;DHT22;58887;51.980;4.464;2022-09-09T13:06:23;19.44;77.88
71184;DHT22;58887;51.980;4.464;2022-09-09T13:08:51;19.69;78.22
71184;DHT22;58887;51.980;4.464;2022-09-09T13:11:23;19.93;76.33
71184;DHT22;58887;51.980;4.464;2022-09-09T13:13:55;20.65;75.32
71184;DHT22;58887;51.980;4.464;2022-09-09T13:16:30;21.02;74.91
71184;DHT22;58887;51.980;4.464;2022-09-09T13:18:59;21.07;73.35
71184;DHT22;58887;51.980;4.464;2022-09-09T13:21:35;20.40;76.32
71184;DHT22;58887;51.980;4.464;2022-09-09T13:24:05;20.24;77.06
71184;DHT22;58887;51.980;4.464;2022-09-09T13:26:34;19.86;75.71
71184;DHT22;58887;51.980;4.464;2022-09-09T13:29:17;19.36;77.76
71184;DHT22;58887;51.980;4.464;2022-09-09T13:31:44;19.18;79.13
71184;DHT22;58887;51.980;4.464;2022-09-09T13:34:31;19.32;78.60
71184;DHT22;58887;51.980;4.464;2022-09-09T13:37:03;19.21;79.07
71184;DHT22;58887;51.980;4.464;2022-09-09T13:39:33;19.06;78.57
71184;DHT22;58887;51.980;4.464;2022-09-09T13:42:00;18.86;80.89
71184;DHT22;58887;51.980;4.464;2022-09-09T13:44:36;18.60;82.34
71184;DHT22;58887;51.980;4.464;2022-09-09T13:47:51;18.26;83.89
71184;DHT22;58887;51.980;4.464;2022-09-09T13:49:51;18.02;85.22
71184;DHT22;58887;51.980;4.464;2022-09-09T13:52:18;17.97;85.79
71184;DHT22;58887;51.980;4.464;2022-09-09T13:54:48;17.85;85.63
71184;DHT22;58887;51.980;4.464;2022-09-09T13:57:21;17.82;85.71
71184;DHT22;58887;51.980;4.464;2022-09-09T13:59:47;17.94;85.30
71184;DHT22;58887;51.980;4.464;2022-09-09T14:02:16;17.90;85.14
71184;DHT22;58887;51.980;4.464;2022-09-09T14:04:43;17.95;84.05
71184;DHT22;58887;51.980;4.464;2022-09-09T14:07:17;18.02;84.56
71184;DHT22;58887;51.980;4.464;2022-09-09T14:09:43;18.00;83.44
71184;DHT22;58887;51.980;4.464;2022-09-09T14:12:11;18.06;82.99
71184;DHT22;58887;51.980;4.464;2022-09-09T14:14:37;18.15;83.14
71184;DHT22;58887;51.980;4.464;2022-09-09T14:17:03;18.26;82.36
71184;DHT22;58887;51.980;4.464;2022-09-09T14:19:29;18.38;82.04
71184;DHT22;58887;51.980;4.464;2022-09-09T14:21:56;18.48;81.52
71184;DHT22;58887;51.980;4.464;2022-09-09T14:24:22;18.66;82.37
71184;DHT22;58887;51.980;4.464;2022-09-09T14:26:47;18.77;81.79
71184;DHT22;58887;51.980;4.464;2022-09-09T14:29:13;18.90;81.11
71184;DHT22;58887;51.980;4.464;2022-09-09T14:31:38;19.35;79.50
71184;DHT22;58887;51.980;4.464;2022-09-09T14:34:04;20.31;77.00
71184;DHT22;58887;51.980;4.464;2022-09-09T14:36:29;21.30;73.36
71184;DHT22;58887;51.980;4.464;2022-09-09T14:38:55;22.22;68.71
71184;DHT22;58887;51.980;4.464;2022-09-09T14:41:20;23.22;68.15
71184;DHT22;58887;51.980;4.464;2022-09-09T14:43:47;23.76;65.43
71184;DHT22;58887;51.980;4.464;2022-09-09T14:46:15;23.76;62.86
71184;DHT22;58887;51.980;4.464;2022-09-09T14:48:41;22.31;65.87
71184;DHT22;58887;51.980;4.464;2022-09-09T14:51:13;23.24;64.79
71184;DHT22;58887;51.980;4.464;2022-09-09T14:53:40;23.96;61.58
71184;DHT22;58887;51.980;4.464;2022-09-09T14:58:32;24.44;59.17
71184;DHT22;58887;51.980;4.464;2022-09-09T15:01:10;23.90;62.37
71184;DHT22;58887;51.980;4.464;2022-09-09T15:03:37;24.37;60.64
71184;DHT22;58887;51.980;4.464;2022-09-09T15:08:35;24.78;56.69
71184;DHT22;58887;51.980;4.464;2022-09-09T15:11:03;24.60;56.92
71184;DHT22;58887;51.980;4.464;2022-09-09T15:13:29;24.99;57.35
71184;DHT22;58887;51.980;4.464;2022-09-09T15:15:55;23.17;61.68
71184;DHT22;58887;51.980;4.464;2022-09-09T15:18:23;23.96;61.34
71184;DHT22;58887;51.980;4.464;2022-09-09T15:20:48;23.15;62.31
71184;DHT22;58887;51.980;4.464;2022-09-09T15:23:14;22.11;65.47
71184;DHT22;58887;51.980;4.464;2022-09-09T15:25:53;21.50;67.99
71184;DHT22;58887;51.980;4.464;2022-09-09T15:28:20;20.96;69.44
71184;DHT22;58887;51.980;4.464;2022-09-09T15:30:49;20.34;70.72
71184;DHT22;58887;51.980;4.464;2022-09-09T15:33:17;20.00;72.96
71184;DHT22;58887;51.980;4.464;2022-09-09T15:35:42;19.83;73.09
71184;DHT22;58887;51.980;4.464;2022-09-09T15:38:08;19.66;73.98
71184;DHT22;58887;51.980;4.464;2022-09-09T15:40:33;19.38;75.82
71184;DHT22;58887;51.980;4.464;2022-09-09T15:42:59;19.44;75.84
71184;DHT22;58887;51.980;4.464;2022-09-09T15:45:24;19.56;75.36
71184;DHT22;58887;51.980;4.464;2022-09-09T15:47:49;19.49;76.02
71184;DHT22;58887;51.980;4.464;2022-09-09T15:50:15;19.62;75.86
71184;DHT22;58887;51.980;4.464;2022-09-09T15:52:40;19.68;75.11
71184;DHT22;58887;51.980;4.464;2022-09-09T15:55:06;19.65;76.02
71184;DHT22;58887;51.980;4.464;2022-09-09T15:57:34;19.49;77.18
71184;DHT22;58887;51.980;4.464;2022-09-09T16:00:00;19.38;78.71
71184;DHT22;58887;51.980;4.464;2022-09-09T16:02:26;19.22;79.86
71184;DHT22;58887;51.980;4.464;2022-09-09T16:04:52;19.00;81.25
71184;DHT22;58887;51.980;4.464;2022-09-09T16:07:17;18.93;81.10
71184;DHT22;58887;51.980;4.464;2022-09-09T16:09:43;18.76;80.63
71184;DHT22;58887;51.980;4.464;2022-09-09T16:12:09;18.71;79.94
71184;DHT22;58887;51.980;4.464;2022-09-09T16:14:37;18.80;79.55
71184;DHT22;58887;51.980;4.464;2022-09-09T16:17:05;18.74;80.68
71184;DHT22;58887;51.980;4.464;2022-09-09T16:19:31;18.66;80.97
71184;DHT22;58887;51.980;4.464;2022-09-09T16:21:57;18.73;81.05
71184;DHT22;58887;51.980;4.464;2022-09-09T16:24:22;18.74;80.86
71184;DHT22;58887;51.980;4.464;2022-09-09T16:26:51;18.76;80.13
71184;DHT22;58887;51.980;4.464;2022-09-09T16:29:18;18.50;81.02
71184;DHT22;58887;51.980;4.464;2022-09-09T16:31:45;18.55;81.08
71184;DHT22;58887;51.980;4.464;2022-09-09T16:34:13;18.60;81.05
71184;DHT22;58887;51.980;4.464;2022-09-09T16:36:40;18.66;80.29
71184;DHT22;58887;51.980;4.464;2022-09-09T16:39:08;18.74;78.76
71184;DHT22;58887;51.980;4.464;2022-09-09T16:41:35;18.89;78.09
71184;DHT22;58887;51.980;4.464;2022-09-09T16:44:04;18.89;76.92
71184;DHT22;58887;51.980;4.464;2022-09-09T16:46:32;18.74;77.83
71184;DHT22;58887;51.980;4.464;2022-09-09T16:49:00;18.70;77.76
71184;DHT22;58887;51.980;4.464;2022-09-09T16:51:32;18.73;78.24
71184;DHT22;58887;51.980;4.464;2022-09-09T16:54:00;18.60;78.56
71184;DHT22;58887;51.980;4.464;2022-09-09T16:56:28;18.61;79.43
71184;DHT22;58887;51.980;4.464;2022-09-09T16:58:56;18.57;79.34
71184;DHT22;58887;51.980;4.464;2022-09-09T17:01:23;18.50;79.52
71184;DHT22;58887;51.980;4.464;2022-09-09T17:03:57;18.40;80.52
71184;DHT22;58887;51.980;4.464;2022-09-09T17:06:23;18.38;80.17
71184;DHT22;58887;51.980;4.464;2022-09-09T17:08:54;18.42;80.45
71184;DHT22;58887;51.980;4.464;2022-09-09T17:11:19;18.30;81.17
71184;DHT22;58887;51.980;4.464;2022-09-09T17:13:47;18.35;80.79
71184;DHT22;58887;51.980;4.464;2022-09-09T17:16:16;18.39;80.69
71184;DHT22;58887;51.980;4.464;2022-09-09T17:18:42;18.40;80.52
71184;DHT22;58887;51.980;4.464;2022-09-09T17:21:12;18.32;80.90
71184;DHT22;58887;51.980;4.464;2022-09-09T17:23:40;18.38;80.50
71184;DHT22;58887;51.980;4.464;2022-09-09T17:26:07;18.36;81.35
71184;DHT22;58887;51.980;4.464;2022-09-09T17:28:34;18.22;81.31
71184;DHT22;58887;51.980;4.464;2022-09-09T17:31:00;18.15;82.50
71184;DHT22;58887;51.980;4.464;2022-09-09T17:33:28;18.08;82.98
71184;DHT22;58887;51.980;4.464;2022-09-09T17:36:01;18.13;82.64
71184;DHT22;58887;51.980;4.464;2022-09-09T17:38:28;18.05;83.15
71184;DHT22;58887;51.980;4.464;2022-09-09T17:41:06;17.97;83.50
71184;DHT22;58887;51.980;4.464;2022-09-09T17:43:33;17.91;83.27
71184;DHT22;58887;51.980;4.464;2022-09-09T17:46:25;17.81;83.14
71184;DHT22;58887;51.980;4.464;2022-09-09T17:48:56;17.75;83.74
71184;DHT22;58887;51.980;4.464;2022-09-09T17:51:24;17.78;83.10
71184;DHT22;58887;51.980;4.464;2022-09-09T17:53:51;17.77;82.89
71184;DHT22;58887;51.980;4.464;2022-09-09T17:56:20;17.74;83.04
71184;DHT22;58887;51.980;4.464;2022-09-09T17:58:47;17.74;82.66
71184;DHT22;58887;51.980;4.464;2022-09-09T18:01:22;17.55;83.42
71184;DHT22;58887;51.980;4.464;2022-09-09T18:03:49;17.51;83.82
71184;DHT22;58887;51.980;4.464;2022-09-09T18:06:26;17.39;85.21